Citronelle, Alabama
Current Conditions -  °F | °C
As of 11:56 AM on Friday 24 Oct 2014 (Local Time) from KMOB Reporting Station
Few Clouds Few Clouds  
Wind Chill: 71°   Ceiling: Unl
Heat Index: 71°   Visibility: 10mi
Dew Point: 46°   Wind: 8mph
Humidity: 41%   Direction: 340°NNW
Pressure: 30.09"   Gusts: NA
Location:  31.09°N, 88.23°W
Report Text: KMOB 241656Z 34007KT 10SM FEW060 FEW150 22/08 A3009 RMK AO2 SLP187 T02170078
Loading
Personal Weather Stations






























Interactive Weather Map
Tropical Storm Tracking
New forecast layout! Learn more

10-Day Weather Forecast

Advertisements
Track Severe Weather on mobile